Time;durP1;ratioP1;P1;durP2;ratioP2;P2;SDS_P1;SDS_P2;PMS_P1;PMS_P2;Temp;Humidity;BMP_temperature;BMP_pressure;BME280_temperature;BME280_humidity;BME280_pressure;Samples;Min_cycle;Max_cycle;Signal;HPM_P1;HPM_P2
2021/04/04 00:00:50;;;;;;;;;;;;;;;24.36;37.14;99793.56;4477961;31;33926;-60
2021/04/04 00:03:17;;;;;;;;;;;;;;;24.34;37.16;99782.06;4494079;31;33334;-48
2021/04/04 00:05:44;;;;;;;;;;;;;;;24.34;37.14;99782.06;4485969;31;34022;-56
2021/04/04 00:08:11;;;;;;;;;;;;;;;24.33;37.24;99783.94;4485509;32;34924;-61
2021/04/04 00:10:38;;;;;;;;;;;;;;;24.33;37.29;99788.56;4492253;31;33671;-52
2021/04/04 00:13:04;;;;;;;;;;;;;;;24.32;37.18;99789.66;4485479;32;33230;-60
2021/04/04 00:15:31;;;;;;;;;;;;;;;24.31;37.23;99793.44;4495070;31;34116;-60
2021/04/04 00:17:58;;;;;;;;;;;;;;;24.31;37.24;99796.16;4501079;31;34939;-58
2021/04/04 00:20:25;;;;;;;;;;;;;;;24.29;37.25;99795.56;4491148;31;34099;-52
2021/04/04 00:22:52;;;;;;;;;;;;;;;24.29;37.21;99790.94;4498228;31;33161;-49
2021/04/04 00:25:19;;;;;;;;;;;;;;;24.27;37.31;99784.88;4498671;31;34138;-60
2021/04/04 00:27:46;;;;;;;;;;;;;;;24.27;37.33;99798.53;4485736;31;34916;-55
2021/04/04 00:30:13;;;;;;;;;;;;;;;24.28;37.44;99793.91;4487067;31;34011;-57
2021/04/04 00:32:40;;;;;;;;;;;;;;;24.27;37.45;99797.69;4490989;31;33313;-59
2021/04/04 00:35:10;;;;;;;;;;;;;;;24.25;37.45;99795.22;4485269;32;34139;-50
2021/04/04 00:37:38;;;;;;;;;;;;;;;24.25;37.45;99788.91;4485150;32;35039;-61
2021/04/04 00:40:09;;;;;;;;;;;;;;;24.25;37.50;99794.34;4485142;32;34425;-60
2021/04/04 00:42:35;;;;;;;;;;;;;;;24.25;37.49;99788.91;4485593;32;34229;-51
2021/04/04 00:45:04;;;;;;;;;;;;;;;24.25;37.50;99788.91;4485589;32;33759;-60
2021/04/04 00:47:33;;;;;;;;;;;;;;;24.23;37.47;99782.88;4496963;31;33880;-59
2021/04/04 00:50:14;;;;;;;;;;;;;;;24.23;37.40;99785.59;4485299;32;34006;-61
2021/04/04 00:52:41;;;;;;;;;;;;;;;24.22;37.46;99787.50;4485271;32;33941;-58
2021/04/04 00:55:08;;;;;;;;;;;;;;;24.22;37.45;99784.75;4485174;32;33961;-61
2021/04/04 00:57:35;;;;;;;;;;;;;;;24.21;37.47;99788.56;4485245;32;34070;-61
2021/04/04 01:00:06;;;;;;;;;;;;;;;24.21;37.47;99787.72;4485069;32;33197;-62
2021/04/04 01:02:33;;;;;;;;;;;;;;;24.19;37.52;99788.75;4485158;32;33430;-62
2021/04/04 01:05:01;;;;;;;;;;;;;;;24.19;37.57;99794.22;4471088;32;34931;-61
2021/04/04 01:07:28;;;;;;;;;;;;;;;24.18;37.53;99786.28;4485016;32;34079;-59
2021/04/04 01:09:55;;;;;;;;;;;;;;;24.16;37.54;99789.25;4499586;31;34711;-60
2021/04/04 01:12:25;;;;;;;;;;;;;;;24.17;37.59;99792.81;4499786;31;33943;-60
2021/04/04 01:14:56;;;;;;;;;;;;;;;24.16;37.52;99797.44;4486179;31;33952;-61
2021/04/04 01:17:23;;;;;;;;;;;;;;;24.15;37.64;99800.38;4486581;31;34897;-61
2021/04/04 01:20:03;;;;;;;;;;;;;;;24.14;37.69;99802.25;4486512;31;34051;-56
2021/04/04 01:22:30;;;;;;;;;;;;;;;24.13;37.66;99806.06;4500743;31;33313;-61
2021/04/04 01:25:04;;;;;;;;;;;;;;;24.13;37.61;99808.78;4500886;31;35429;-62
2021/04/04 01:27:33;;;;;;;;;;;;;;;24.14;37.59;99806.88;4500495;31;34108;-50
2021/04/04 01:30:00;;;;;;;;;;;;;;;24.13;37.56;99808.78;4487547;31;34052;-61
2021/04/04 01:32:27;;;;;;;;;;;;;;;24.14;37.59;99802.25;4486578;31;33233;-55
2021/04/04 01:34:54;;;;;;;;;;;;;;;24.12;37.64;99812.59;4486517;31;33986;-59
2021/04/04 01:37:21;;;;;;;;;;;;;;;24.11;37.58;99810.09;4486306;31;34543;-61
2021/04/04 01:39:49;;;;;;;;;;;;;;;24.11;37.57;99805.47;4486413;31;34105;-61
2021/04/04 01:42:16;;;;;;;;;;;;;;;24.11;37.57;99805.47;4486370;31;33327;-61
2021/04/04 01:44:44;;;;;;;;;;;;;;;24.11;37.54;99808.19;4500673;31;34715;-60
2021/04/04 01:47:11;;;;;;;;;;;;;;;24.09;37.63;99807.59;4500655;31;34970;-59
2021/04/04 01:49:39;;;;;;;;;;;;;;;24.10;37.59;99811.13;4474719;32;34732;-61
2021/04/04 01:52:06;;;;;;;;;;;;;;;24.08;37.59;99800.47;4470642;32;33469;-54
2021/04/04 01:54:35;;;;;;;;;;;;;;;24.08;37.62;99805.09;4484762;32;34038;-60
2021/04/04 01:57:02;;;;;;;;;;;;;;;24.06;37.64;99802.59;4484884;32;34983;-61
2021/04/04 01:59:29;;;;;;;;;;;;;;;24.06;37.71;99799.88;4470523;32;33942;-59
2021/04/04 02:01:56;;;;;;;;;;;;;;;24.05;37.69;99803.66;4470682;32;34305;-61
2021/04/04 02:04:23;;;;;;;;;;;;;;;24.05;37.80;99809.09;4470420;32;34175;-54
2021/04/04 02:06:51;;;;;;;;;;;;;;;24.05;37.75;99806.38;4484580;32;34133;-62
2021/04/04 02:09:17;;;;;;;;;;;;;;;24.04;37.74;99809.34;4479220;31;35073;-57
2021/04/04 02:11:47;;;;;;;;;;;;;;;24.03;37.72;99811.25;4485493;31;33250;-60
2021/04/04 02:14:15;;;;;;;;;;;;;;;24.04;37.71;99803.87;4499986;31;34110;-52
2021/04/04 02:16:48;;;;;;;;;;;;;;;24.03;37.72;99805.78;4500275;31;35009;-61
2021/04/04 02:19:17;;;;;;;;;;;;;;;24.02;37.74;99806.84;4500679;31;34026;-57
2021/04/04 02:21:43;;;;;;;;;;;;;;;24.01;37.73;99807.88;4484728;31;32163;-61
2021/04/04 02:24:10;;;;;;;;;;;;;;;24.01;37.73;99801.63;4484293;32;34148;-61
2021/04/04 02:26:37;;;;;;;;;;;;;;;23.99;37.76;99810.03;4470182;32;34162;-52
2021/04/04 02:29:04;;;;;;;;;;;;;;;23.99;37.68;99807.31;4492345;31;34638;-59
2021/04/04 02:31:39;;;;;;;;;;;;;;;23.98;37.90;99808.38;4485492;31;33207;-61
2021/04/04 02:34:13;;;;;;;;;;;;;;;23.98;37.87;99813.81;4485970;31;35380;-60
2021/04/04 02:36:40;;;;;;;;;;;;;;;23.98;37.92;99819.28;4485771;31;34128;-53
2021/04/04 02:39:13;;;;;;;;;;;;;;;23.97;37.82;99812.16;4485749;31;35325;-61
2021/04/04 02:42:09;;;;;;;;;;;;;;;23.99;37.87;99814.66;4486171;31;33209;-50
2021/04/04 02:44:37;;;;;;;;;;;;;;;23.99;37.78;99809.19;4500225;31;34850;-61
2021/04/04 02:47:06;;;;;;;;;;;;;;;23.97;37.82;99816.75;4500010;31;33786;-61
2021/04/04 02:49:34;;;;;;;;;;;;;;;23.97;37.77;99812.16;4490734;31;33689;-55
2021/04/04 02:52:02;;;;;;;;;;;;;;;23.98;37.92;99823.91;4469954;32;33981;-52
2021/04/04 02:54:29;;;;;;;;;;;;;;;23.97;37.89;99814.03;4469929;32;35065;-60
2021/04/04 02:56:56;;;;;;;;;;;;;;;23.96;37.92;99813.22;4469522;32;34456;-64
2021/04/04 02:59:24;;;;;;;;;;;;;;;23.95;37.96;99821.62;4477020;31;34389;-51
2021/04/04 03:01:52;;;;;;;;;;;;;;;23.95;37.89;99822.44;4485562;31;33249;-61
2021/04/04 03:04:19;;;;;;;;;;;;;;;23.95;37.55;99819.72;4485188;31;34063;-60
2021/04/04 03:06:46;;;;;;;;;;;;;;;23.94;37.51;99820.78;4485455;31;34202;-60
2021/04/04 03:09:13;;;;;;;;;;;;;;;23.94;37.35;99828.97;4478975;32;33609;-57
2021/04/04 03:11:40;;;;;;;;;;;;;;;23.93;37.34;99824.59;4469542;32;32797;-60
2021/04/04 03:14:07;;;;;;;;;;;;;;;23.92;37.30;99829.22;4469662;32;34002;-60
2021/04/04 03:16:34;;;;;;;;;;;;;;;23.91;37.32;99824.78;4469648;32;34127;-60
2021/04/04 03:19:02;;;;;;;;;;;;;;;23.91;37.35;99827.50;4470257;31;34021;-51
2021/04/04 03:21:30;;;;;;;;;;;;;;;23.90;37.30;99822.31;4482380;32;32945;-51
2021/04/04 03:23:57;;;;;;;;;;;;;;;23.89;37.32;99824.19;4487750;31;34051;-48
2021/04/04 03:26:24;;;;;;;;;;;;;;;23.90;37.32;99827.75;4488742;31;34583;-55
2021/04/04 03:28:53;;;;;;;;;;;;;;;23.90;37.39;99827.75;4471638;32;34795;-52
2021/04/04 03:31:19;;;;;;;;;;;;;;;23.88;37.45;99836.16;4484573;32;33342;-52
2021/04/04 03:33:46;;;;;;;;;;;;;;;23.88;37.42;99827.16;4485548;32;34011;-52
2021/04/04 03:36:14;;;;;;;;;;;;;;;23.87;37.48;99826.31;4484478;32;33712;-48
2021/04/04 03:38:41;;;;;;;;;;;;;;;23.88;37.46;99835.34;4484517;32;33975;-49
2021/04/04 03:41:08;;;;;;;;;;;;;;;23.87;37.48;99834.47;4486992;31;33940;-49
2021/04/04 03:43:35;;;;;;;;;;;;;;;23.86;37.53;99832.81;4487187;31;33646;-46
2021/04/04 03:46:03;;;;;;;;;;;;;;;23.86;37.50;99840.16;4487157;31;34364;-50
2021/04/04 03:48:30;;;;;;;;;;;;;;;23.86;37.53;99842.91;4486316;31;34658;-53
2021/04/04 03:50:58;;;;;;;;;;;;;;;23.85;37.52;99841.25;4487270;31;33958;-48
2021/04/04 03:53:25;;;;;;;;;;;;;;;23.84;37.58;99845.84;4487337;31;34796;-49
2021/04/04 03:55:53;;;;;;;;;;;;;;;23.83;37.59;99833.31;4501230;31;34150;-53
2021/04/04 03:58:21;;;;;;;;;;;;;;;23.82;37.61;99837.06;4487164;31;34730;-54
2021/04/04 04:00:48;;;;;;;;;;;;;;;23.82;37.59;99831.63;4487164;31;34232;-54
2021/04/04 04:03:15;;;;;;;;;;;;;;;23.81;37.58;99831.84;4487099;31;34237;-47
2021/04/04 04:05:42;;;;;;;;;;;;;;;23.81;37.63;99835.41;4501573;31;34174;-49
2021/04/04 04:08:08;;;;;;;;;;;;;;;23.80;37.61;99839.19;4487393;31;34020;-51
2021/04/04 04:10:37;;;;;;;;;;;;;;;23.81;37.62;99834.56;4486822;31;33249;-49
2021/04/04 04:13:04;;;;;;;;;;;;;;;23.80;37.67;99830.19;4501270;31;34005;-57
2021/04/04 04:15:30;;;;;;;;;;;;;;;23.79;37.69;99831.25;4487084;31;35588;-47
2021/04/04 04:17:57;;;;;;;;;;;;;;;23.78;37.61;99835.88;4497790;31;34063;-51
2021/04/04 04:20:24;;;;;;;;;;;;;;;23.79;37.66;99839.44;4471370;32;33259;-52
2021/04/04 04:22:51;;;;;;;;;;;;;;;23.78;37.68;99840.47;4485404;32;35499;-50
2021/04/04 04:25:18;;;;;;;;;;;;;;;23.78;37.65;99841.34;4471067;32;34219;-47
2021/04/04 04:27:45;;;;;;;;;;;;;;;23.79;37.69;99850.34;4485239;32;33971;-47
2021/04/04 04:30:12;;;;;;;;;;;;;;;23.77;37.73;99842.38;4471226;32;33283;-56
2021/04/04 04:32:40;;;;;;;;;;;;;;;23.78;37.72;99851.38;4485216;32;34048;-52
2021/04/04 04:35:07;;;;;;;;;;;;;;;23.77;37.73;99849.72;4471184;32;34941;-54
2021/04/04 04:37:35;;;;;;;;;;;;;;;23.77;37.76;99857.88;4470486;32;33908;-50
2021/04/04 04:40:02;;;;;;;;;;;;;;;23.77;37.75;99860.59;4485542;32;34050;-48
2021/04/04 04:42:30;;;;;;;;;;;;;;;23.76;37.70;99862.50;4485552;32;33699;-49
2021/04/04 04:44:57;;;;;;;;;;;;;;;23.76;37.77;99856.22;4471112;32;34735;-52
2021/04/04 04:47:24;;;;;;;;;;;;;;;23.74;37.84;99859.19;4470955;32;35296;-51
2021/04/04 04:49:51;;;;;;;;;;;;;;;23.74;37.87;99870.09;4471044;32;33198;-51
2021/04/04 04:52:18;;;;;;;;;;;;;;;23.74;37.82;99866.53;4485168;32;34804;-51
2021/04/04 04:54:45;;;;;;;;;;;;;;;23.73;37.86;99864.84;4485372;32;34040;-51
2021/04/04 04:57:12;;;;;;;;;;;;;;;23.73;37.86;99873.84;4485167;32;33993;-54
2021/04/04 04:59:39;;;;;;;;;;;;;;;23.73;37.90;99864.84;4471374;32;33262;-49
2021/04/04 05:02:06;;;;;;;;;;;;;;;23.73;37.87;99873.84;4485059;32;34000;-50
2021/04/04 05:04:33;;;;;;;;;;;;;;;23.73;37.88;99878.47;4485417;32;35045;-52
2021/04/04 05:07:00;;;;;;;;;;;;;;;23.72;37.90;99876.81;4485021;32;34351;-46
2021/04/04 05:09:28;;;;;;;;;;;;;;;23.73;37.92;99881.19;4485028;32;34000;-51
2021/04/04 05:11:54;;;;;;;;;;;;;;;23.72;37.91;99883.09;4470939;32;34912;-56
2021/04/04 05:14:21;;;;;;;;;;;;;;;23.71;37.93;99878.69;4470737;32;34903;-49
2021/04/04 05:16:48;;;;;;;;;;;;;;;23.72;37.92;99884.97;4484963;32;33911;-47
2021/04/04 05:19:15;;;;;;;;;;;;;;;23.72;37.94;99887.69;4470806;32;33262;-55
2021/04/04 05:21:42;;;;;;;;;;;;;;;23.71;37.90;99886.03;4485020;32;34087;-50
2021/04/04 05:24:10;;;;;;;;;;;;;;;23.70;37.96;99898.84;4484879;32;34147;-48
2021/04/04 05:26:40;;;;;;;;;;;;;;;23.70;37.97;99896.13;4484872;32;34046;-57
2021/04/04 05:29:08;;;;;;;;;;;;;;;23.71;37.95;99902.37;4485040;32;33344;-58
2021/04/04 05:31:51;;;;;;;;;;;;;;;23.70;37.92;99901.56;4484797;32;34154;-52
2021/04/04 05:34:21;;;;;;;;;;;;;;;23.71;37.94;99907.84;4485005;32;34085;-52
2021/04/04 05:37:01;;;;;;;;;;;;;;;23.70;37.95;99900.72;4484641;32;34803;-53
2021/04/04 05:39:32;;;;;;;;;;;;;;;23.70;37.91;99907.00;4485012;32;33269;-52
2021/04/04 05:42:00;;;;;;;;;;;;;;;23.68;37.91;99904.50;4484902;32;34611;-57
2021/04/04 05:44:39;;;;;;;;;;;;;;;23.68;37.88;99909.94;4485166;32;33715;-50
2021/04/04 05:47:13;;;;;;;;;;;;;;;23.68;37.82;99904.50;4484891;32;34041;-50
2021/04/04 05:49:48;;;;;;;;;;;;;;;23.68;38.14;99904.50;4469493;32;33967;-47
2021/04/04 05:52:30;;;;;;;;;;;;;;;23.68;38.16;99917.28;4470635;32;33975;-52
2021/04/04 05:54:59;;;;;;;;;;;;;;;23.67;38.09;99905.56;4470807;32;33948;-54
2021/04/04 05:57:26;;;;;;;;;;;;;;;23.67;38.10;99911.00;4484715;32;34066;-52
2021/04/04 05:59:57;;;;;;;;;;;;;;;23.68;38.05;99912.66;4484728;32;33284;-52
2021/04/04 06:02:43;;;;;;;;;;;;;;;23.68;38.01;99906.38;4470543;32;34801;-51
2021/04/04 06:05:24;;;;;;;;;;;;;;;23.67;38.03;99907.44;4484333;32;34621;-48
2021/04/04 06:08:10;;;;;;;;;;;;;;;23.67;37.86;99913.72;4470448;32;33515;-51
2021/04/04 06:10:40;;;;;;;;;;;;;;;23.67;38.07;99913.72;4484555;32;33325;-50
2021/04/04 06:13:26;;;;;;;;;;;;;;;23.66;38.10;99911.25;4484621;32;34039;-47
2021/04/04 06:15:53;;;;;;;;;;;;;;;23.65;38.10;99910.41;4484494;32;34084;-52
2021/04/04 06:18:39;;;;;;;;;;;;;;;23.64;38.10;99916.94;4490379;31;34166;-55
2021/04/04 06:21:09;;;;;;;;;;;;;;;23.65;37.97;99921.31;4500555;31;33709;-54
2021/04/04 06:23:51;;;;;;;;;;;;;;;23.65;38.15;99932.19;4500341;31;34898;-54
2021/04/04 06:26:21;;;;;;;;;;;;;;;23.65;38.13;99928.66;4500051;31;34152;-55
2021/04/04 06:29:02;;;;;;;;;;;;;;;23.64;38.14;99933.28;4500257;31;34084;-54
2021/04/04 06:31:34;;;;;;;;;;;;;;;23.64;38.18;99933.28;4500152;31;33928;-53
2021/04/04 06:34:04;;;;;;;;;;;;;;;23.65;38.11;99936.81;4477505;32;34798;-50
2021/04/04 06:36:42;;;;;;;;;;;;;;;23.65;38.12;99939.53;4484104;32;34124;-51
2021/04/04 06:39:28;;;;;;;;;;;;;;;23.63;38.11;99939.72;4484322;32;33589;-54
2021/04/04 06:42:00;;;;;;;;;;;;;;;23.65;38.18;99942.28;4484521;32;33969;-55
2021/04/04 06:44:38;;;;;;;;;;;;;;;23.64;38.26;99940.56;4483830;32;34564;-49
2021/04/04 06:47:27;;;;;;;;;;;;;;;23.64;38.21;99937.84;4471413;32;34251;-54
2021/04/04 06:50:12;;;;;;;;;;;;;;;23.64;38.23;99946.88;4484170;32;34781;-47
2021/04/04 06:52:49;;;;;;;;;;;;;;;23.64;38.19;99943.31;4483747;32;33301;-50
2021/04/04 06:55:17;;;;;;;;;;;;;;;23.63;38.21;99950.63;4483882;32;33265;-53
2021/04/04 06:57:57;;;;;;;;;;;;;;;23.64;38.25;99951.47;4483962;32;34148;-50
2021/04/04 07:00:25;;;;;;;;;;;;;;;23.64;38.29;99957.78;4484768;32;34002;-53
2021/04/04 07:02:53;;;;;;;;;;;;;;;23.65;38.19;99956.72;4486110;32;33610;-48
2021/04/04 07:05:20;;;;;;;;;;;;;;;23.66;38.22;99961.09;4471519;32;34368;-51
2021/04/04 07:08:06;;;;;;;;;;;;;;;23.66;38.26;99960.28;4471760;32;34179;-49
2021/04/04 07:10:33;;;;;;;;;;;;;;;23.67;38.22;99953.75;4485828;32;34094;-54
2021/04/04 07:13:19;;;;;;;;;;;;;;;23.67;38.22;99957.31;4486037;32;33210;-56
2021/04/04 07:16:01;;;;;;;;;;;;;;;23.68;38.24;99955.41;4485653;32;34889;-51
2021/04/04 07:18:39;;;;;;;;;;;;;;;23.65;38.28;99964.91;4471781;32;34964;-50
2021/04/04 07:21:15;;;;;;;;;;;;;;;23.66;38.31;99960.28;4458812;32;33582;-50
2021/04/04 07:23:50;;;;;;;;;;;;;;;23.66;38.32;99957.56;4485929;32;33238;-52
2021/04/04 07:26:23;;;;;;;;;;;;;;;23.66;38.26;99960.28;4485791;32;34206;-55
2021/04/04 07:28:57;;;;;;;;;;;;;;;23.65;38.22;99961.34;4485728;32;33657;-50
2021/04/04 07:31:26;;;;;;;;;;;;;;;23.65;38.23;99962.16;4471698;32;34042;-47
2021/04/04 07:33:57;;;;;;;;;;;;;;;23.66;38.40;99960.28;4485776;32;34369;-49
2021/04/04 07:36:30;;;;;;;;;;;;;;;23.64;37.57;99962.37;4471822;32;34787;-59
2021/04/04 07:38:57;;;;;;;;;;;;;;;23.61;37.27;99966.34;4471348;32;34655;-54
2021/04/04 07:41:31;;;;;;;;;;;;;;;23.62;36.41;99972.63;4485672;32;34736;-50
2021/04/04 07:44:06;;;;;;;;;;;;;;;23.61;36.03;99965.53;4471654;32;33132;-48
2021/04/04 07:46:41;;;;;;;;;;;;;;;23.58;35.93;99963.25;4471377;32;33724;-50
2021/04/04 07:49:19;;;;;;;;;;;;;;;23.54;35.14;99972.91;4471375;32;34873;-49
2021/04/04 07:51:54;;;;;;;;;;;;;;;23.58;35.51;99971.41;4485435;32;34386;-50
2021/04/04 07:54:27;;;;;;;;;;;;;;;23.54;35.27;99965.56;4485647;32;33543;-49
2021/04/04 07:56:53;;;;;;;;;;;;;;;23.56;35.24;99968.09;4471199;32;34163;-53
2021/04/04 07:59:32;;;;;;;;;;;;;;;23.55;35.14;99970.00;4485491;32;34197;-51
2021/04/04 08:02:05;;;;;;;;;;;;;;;23.48;34.94;99966.47;4485769;32;34108;-49
2021/04/04 08:04:34;;;;;;;;;;;;;;;23.51;34.81;99965.22;4471429;32;33239;-48
2021/04/04 08:07:20;;;;;;;;;;;;;;;23.51;34.65;99966.03;4471379;32;34522;-49
2021/04/04 08:09:51;;;;;;;;;;;;;;;23.51;34.38;99971.50;4471383;32;34169;-47
2021/04/04 08:12:24;;;;;;;;;;;;;;;23.49;34.19;99970.03;4484971;32;34696;-50
2021/04/04 08:14:57;;;;;;;;;;;;;;;23.47;34.03;99967.53;4485249;32;33339;-50
2021/04/04 08:17:24;;;;;;;;;;;;;;;23.48;33.83;99968.38;4485125;32;33632;-48
2021/04/04 08:19:53;;;;;;;;;;;;;;;23.46;33.99;99971.31;4500900;31;35040;-50
2021/04/04 08:22:21;;;;;;;;;;;;;;;23.46;33.95;99973.22;4486814;31;34865;-49
2021/04/04 08:24:59;;;;;;;;;;;;;;;23.40;33.58;99970.31;4486738;31;33377;-53
2021/04/04 08:27:32;;;;;;;;;;;;;;;23.40;33.66;99970.31;4486798;31;34215;-50
2021/04/04 08:30:00;;;;;;;;;;;;;;;23.40;33.47;99966.75;4486861;31;35031;-53
2021/04/04 08:32:47;;;;;;;;;;;;;;;23.40;33.76;99966.75;4487111;31;34051;-48
2021/04/04 08:35:15;;;;;;;;;;;;;;;23.39;33.40;99965.09;4501050;31;32884;-48
2021/04/04 08:38:01;;;;;;;;;;;;;;;23.40;33.16;99964.84;4486682;31;34955;-50
2021/04/04 08:40:28;;;;;;;;;;;;;;;23.38;33.19;99966.16;4500995;31;34050;-48
2021/04/04 08:42:55;;;;;;;;;;;;;;;23.35;33.20;99974.75;4457692;31;33507;-52
2021/04/04 08:45:45;;;;;;;;;;;;;;;23.35;32.71;99959.25;4474118;32;34147;-50
2021/04/04 08:48:12;;;;;;;;;;;;;;;23.36;32.89;99960.06;4474605;31;33530;-52
2021/04/04 08:50:40;;;;;;;;;;;;;;;23.36;33.13;99954.63;4483596;32;34888;-48
2021/04/04 08:53:10;;;;;;;;;;;;;;;23.36;33.22;99955.50;4484676;32;34171;-48
2021/04/04 08:55:37;;;;;;;;;;;;;;;23.36;33.31;99947.31;4484835;32;33189;-48
2021/04/04 08:58:04;;;;;;;;;;;;;;;23.37;33.44;99946.25;4483244;32;33956;-52
2021/04/04 09:00:31;;;;;;;;;;;;;;;23.37;33.55;99946.25;4484933;32;34879;-47
2021/04/04 09:03:08;;;;;;;;;;;;;;;23.38;33.74;99947.09;4470568;32;33977;-49
2021/04/04 09:05:35;;;;;;;;;;;;;;;23.39;33.99;99946.03;4472212;32;33342;-50
2021/04/04 09:08:03;;;;;;;;;;;;;;;23.41;34.00;99949.38;4484308;32;34131;-47
2021/04/04 09:10:34;;;;;;;;;;;;;;;23.40;34.16;99945.78;4484636;32;34118;-49
2021/04/04 09:13:05;;;;;;;;;;;;;;;23.41;34.24;99946.66;4482509;32;34760;-52
2021/04/04 09:15:32;;;;;;;;;;;;;;;23.42;34.40;99946.41;4484856;32;32988;-50
2021/04/04 09:18:01;;;;;;;;;;;;;;;23.43;34.45;99949.97;4483453;32;34793;-52
2021/04/04 09:20:32;;;;;;;;;;;;;;;23.46;34.62;99948.72;4485024;32;34922;-49
2021/04/04 09:23:03;;;;;;;;;;;;;;;23.45;34.65;99942.41;4484510;32;34738;-49
2021/04/04 09:25:30;;;;;;;;;;;;;;;23.46;34.75;99948.72;4484848;32;34132;-48
2021/04/04 09:27:57;;;;;;;;;;;;;;;23.46;34.82;99946.81;4484575;32;34902;-56
2021/04/04 09:30:34;;;;;;;;;;;;;;;23.48;34.92;99950.13;4484532;32;34175;-50
2021/04/04 09:33:05;;;;;;;;;;;;;;;23.49;34.99;99946.34;4484476;32;33946;-47
2021/04/04 09:35:33;;;;;;;;;;;;;;;23.49;35.06;99934.63;4484481;32;33686;-49
2021/04/04 09:38:03;;;;;;;;;;;;;;;23.49;35.12;99938.19;4470063;32;34107;-50
2021/04/04 09:40:30;;;;;;;;;;;;;;;23.51;35.15;99944.25;4484529;32;34121;-50
2021/04/04 09:43:07;;;;;;;;;;;;;;;23.51;35.22;99933.34;4482162;32;34757;-51
2021/04/04 09:45:34;;;;;;;;;;;;;;;23.52;35.24;99937.75;4484036;31;33237;-48
2021/04/04 09:48:18;;;;;;;;;;;;;;;23.51;35.29;99936.09;4491603;31;34029;-52
2021/04/04 09:50:45;;;;;;;;;;;;;;;23.52;35.33;99935.03;4485010;31;33904;-49
2021/04/04 09:53:12;;;;;;;;;;;;;;;23.53;35.37;99936.69;4492516;31;33651;-52
2021/04/04 09:55:46;;;;;;;;;;;;;;;23.53;35.37;99931.22;4491992;31;32030;-49
2021/04/04 09:58:14;;;;;;;;;;;;;;;23.52;35.48;99932.28;4483660;31;34006;-50
2021/04/04 10:00:41;;;;;;;;;;;;;;;23.53;35.50;99933.94;4467829;31;33775;-50
2021/04/04 10:03:16;;;;;;;;;;;;;;;23.55;35.51;99934.56;4483509;31;34002;-53
2021/04/04 10:05:46;;;;;;;;;;;;;;;23.57;35.51;99928.91;4482731;31;34081;-50
2021/04/04 10:08:16;;;;;;;;;;;;;;;23.56;35.62;99927.25;4482596;31;34061;-48
2021/04/04 10:10:52;;;;;;;;;;;;;;;23.56;35.67;99929.97;4490594;31;33957;-49
2021/04/04 10:13:26;;;;;;;;;;;;;;;23.56;35.72;99932.69;4486638;31;35128;-49
2021/04/04 10:15:53;;;;;;;;;;;;;;;23.55;35.78;99926.41;4483486;31;33926;-51
2021/04/04 10:18:21;;;;;;;;;;;;;;;23.55;35.81;99931.84;4487554;31;32943;-50
2021/04/04 10:20:48;;;;;;;;;;;;;;;23.56;35.81;99938.13;4491851;31;33043;-52
2021/04/04 10:23:14;;;;;;;;;;;;;;;23.56;35.86;99924.50;4491506;31;34957;-49
2021/04/04 10:25:58;;;;;;;;;;;;;;;23.56;35.90;99924.50;4491597;31;33121;-52
2021/04/04 10:28:34;;;;;;;;;;;;;;;23.56;35.92;99921.78;4483268;31;34060;-53
2021/04/04 10:31:02;;;;;;;;;;;;;;;23.57;35.91;99920.72;4476847;31;34062;-47
2021/04/04 10:33:29;;;;;;;;;;;;;;;23.56;35.96;99911.72;4492119;31;34065;-50
2021/04/04 10:35:56;;;;;;;;;;;;;;;23.57;35.94;99909.84;4475817;31;33245;-53
2021/04/04 10:38:24;;;;;;;;;;;;;;;23.57;35.96;99915.28;4491554;31;34124;-49
2021/04/04 10:40:55;;;;;;;;;;;;;;;23.58;35.98;99911.50;4491316;31;33007;-55
2021/04/04 10:43:22;;;;;;;;;;;;;;;23.57;36.00;99902.50;4488381;31;33838;-48
2021/04/04 10:45:53;;;;;;;;;;;;;;;23.56;36.06;99900.00;4482618;31;33104;-51
2021/04/04 10:48:21;;;;;;;;;;;;;;;23.56;36.01;99908.16;4468542;31;34923;-48
2021/04/04 10:50:49;;;;;;;;;;;;;;;23.55;35.97;99896.44;4471608;31;34134;-52
2021/04/04 10:53:17;;;;;;;;;;;;;;;23.55;35.98;99899.19;4491671;31;34049;-48
2021/04/04 10:55:44;;;;;;;;;;;;;;;23.54;35.98;99894.75;4483643;31;32864;-52
2021/04/04 10:58:13;;;;;;;;;;;;;;;23.54;35.99;99885.75;4482310;31;33993;-47
2021/04/04 11:00:41;;;;;;;;;;;;;;;23.53;35.98;99887.66;4476566;31;34889;-49
2021/04/04 11:03:08;;;;;;;;;;;;;;;23.51;36.01;99884.34;4467390;31;34042;-49
2021/04/04 11:05:36;;;;;;;;;;;;;;;23.51;35.90;99891.69;4485106;31;33288;-49
2021/04/04 11:08:03;;;;;;;;;;;;;;;23.50;35.93;99898.16;4491089;31;32912;-48
2021/04/04 11:10:30;;;;;;;;;;;;;;;23.51;35.93;99900.69;4488782;31;36673;-51
2021/04/04 11:12:57;;;;;;;;;;;;;;;23.50;35.96;99890.84;4484833;31;34252;-53
2021/04/04 11:15:24;;;;;;;;;;;;;;;23.51;36.02;99887.06;4468538;31;33520;-52
2021/04/04 11:17:51;;;;;;;;;;;;;;;23.50;36.04;99879.94;4488374;31;33880;-51
2021/04/04 11:20:18;;;;;;;;;;;;;;;23.50;36.08;99885.41;4470043;31;33701;-54
2021/04/04 11:22:46;;;;;;;;;;;;;;;23.50;36.11;99882.69;4468096;31;34816;-52
2021/04/04 11:25:15;;;;;;;;;;;;;;;23.51;36.19;99880.78;4482811;31;32977;-52
2021/04/04 11:27:44;;;;;;;;;;;;;;;23.50;36.19;99874.50;4476296;31;33838;-48
2021/04/04 11:30:14;;;;;;;;;;;;;;;23.49;36.21;99875.53;4482553;31;34201;-51
2021/04/04 11:32:42;;;;;;;;;;;;;;;23.50;36.26;99873.66;4475372;31;34403;-49
2021/04/04 11:35:11;;;;;;;;;;;;;;;23.49;36.29;99878.25;4481896;31;33669;-48
2021/04/04 11:37:39;;;;;;;;;;;;;;;23.50;36.36;99879.09;4482627;31;34597;-48
2021/04/04 11:40:15;;;;;;;;;;;;;;;23.50;36.39;99876.38;4481624;31;33710;-50
2021/04/04 11:42:43;;;;;;;;;;;;;;;23.49;36.41;99872.81;4482907;31;33955;-49
2021/04/04 11:45:11;;;;;;;;;;;;;;;23.49;36.44;99870.09;4489397;31;34138;-51
2021/04/04 11:47:38;;;;;;;;;;;;;;;23.49;36.49;99867.38;4491865;31;34012;-53
2021/04/04 11:50:24;;;;;;;;;;;;;;;23.50;36.55;99873.66;4492979;31;34124;-55
2021/04/04 11:52:51;;;;;;;;;;;;;;;23.51;36.53;99872.63;4493124;31;33791;-52
2021/04/04 11:55:19;;;;;;;;;;;;;;;23.52;36.49;99866.94;4484034;31;32971;-54
2021/04/04 11:57:46;;;;;;;;;;;;;;;23.52;36.49;99856.03;4492917;31;34092;-54
2021/04/04 12:00:14;;;;;;;;;;;;;;;23.52;36.47;99852.47;4483934;31;34043;-51
2021/04/04 12:02:58;;;;;;;;;;;;;;;23.52;36.55;99853.31;4483833;31;33779;-50
2021/04/04 12:05:25;;;;;;;;;;;;;;;23.52;36.56;99856.03;4492393;31;33066;-52
2021/04/04 12:07:53;;;;;;;;;;;;;;;23.52;36.59;99852.47;4484022;31;34127;-53
2021/04/04 12:10:24;;;;;;;;;;;;;;;23.51;36.58;99839.94;4476647;31;34288;-51
2021/04/04 12:12:52;;;;;;;;;;;;;;;23.52;36.49;99849.75;4486873;31;33775;-50
2021/04/04 12:15:19;;;;;;;;;;;;;;;23.51;36.64;99838.03;4478329;31;34062;-51
2021/04/04 12:17:47;;;;;;;;;;;;;;;23.52;36.71;99836.97;4484602;31;33995;-51
2021/04/04 12:20:14;;;;;;;;;;;;;;;23.51;36.60;99831.75;4483723;31;34040;-49
2021/04/04 12:22:42;;;;;;;;;;;;;;;23.51;36.54;99843.47;4492587;31;34024;-47
2021/04/04 12:25:09;;;;;;;;;;;;;;;23.50;36.54;99830.94;4493223;31;33402;-54
2021/04/04 12:27:37;;;;;;;;;;;;;;;23.49;36.53;99829.25;4483463;31;33673;-48
2021/04/04 12:30:04;;;;;;;;;;;;;;;23.49;36.53;99820.25;4489747;31;34134;-51
2021/04/04 12:32:32;;;;;;;;;;;;;;;23.47;36.50;99828.66;4492920;31;33730;-47
2021/04/04 12:35:00;;;;;;;;;;;;;;;23.48;36.51;99826.75;4468805;31;33235;-51
2021/04/04 12:37:31;;;;;;;;;;;;;;;23.48;36.50;99818.59;4484817;31;34049;-52
2021/04/04 12:39:59;;;;;;;;;;;;;;;23.47;36.51;99816.94;4485016;31;33842;-50
2021/04/04 12:42:27;;;;;;;;;;;;;;;23.46;36.50;99815.28;4484382;31;34133;-49
2021/04/04 12:44:54;;;;;;;;;;;;;;;23.45;36.50;99814.41;4492928;31;32062;-50
2021/04/04 12:47:22;;;;;;;;;;;;;;;23.44;36.50;99820.91;4484423;31;34470;-50
2021/04/04 12:49:53;;;;;;;;;;;;;;;23.45;36.50;99810.84;4483761;31;34201;-50
2021/04/04 12:52:36;;;;;;;;;;;;;;;23.44;36.50;99820.91;4487218;31;34129;-57
2021/04/04 12:55:26;;;;;;;;;;;;;;;23.42;36.49;99815.72;4491732;31;34040;-50
2021/04/04 12:57:55;;;;;;;;;;;;;;;23.42;36.50;99809.44;4476560;31;33543;-50
2021/04/04 13:00:23;;;;;;;;;;;;;;;23.41;36.48;99814.06;4485439;31;35360;-51
2021/04/04 13:02:53;;;;;;;;;;;;;;;23.41;36.48;99813.22;4490664;31;34140;-51